createdAt,value
2019-05-19T00:03:02.197Z,9.11
2019-05-19T00:06:09.800Z,9.11
2019-05-19T00:09:17.020Z,9.11
2019-05-19T00:12:24.440Z,9.14
2019-05-19T00:15:31.952Z,9.13
2019-05-19T00:18:39.226Z,9.25
2019-05-19T00:21:47.051Z,9.61
2019-05-19T00:24:54.321Z,9.15
2019-05-19T00:28:02.551Z,8.70
2019-05-19T00:31:09.877Z,8.38
2019-05-19T00:34:17.806Z,8.23
2019-05-19T00:37:25.002Z,8.03
2019-05-19T00:40:32.831Z,8.18
2019-05-19T00:43:40.551Z,8.06
2019-05-19T00:46:47.930Z,8.12
2019-05-19T00:49:55.425Z,8.19
2019-05-19T00:53:03.449Z,8.30
2019-05-19T00:56:11.411Z,8.27
2019-05-19T00:59:19.767Z,8.75
2019-05-19T01:02:27.042Z,8.70
2019-05-19T01:05:34.194Z,8.34
2019-05-19T01:08:44.399Z,8.00
2019-05-19T01:11:51.701Z,7.71
2019-05-19T01:14:58.896Z,7.53
2019-05-19T01:18:06.276Z,7.50
2019-05-19T01:21:14.558Z,7.55
2019-05-19T01:24:22.108Z,7.63
2019-05-19T01:27:29.694Z,7.88
2019-05-19T01:30:36.962Z,7.83
2019-05-19T01:33:44.508Z,7.87
2019-05-19T01:36:52.261Z,7.84
2019-05-19T01:40:00.323Z,8.18
2019-05-19T01:43:07.782Z,8.26
2019-05-19T01:46:15.277Z,8.00
2019-05-19T01:49:22.538Z,7.61
2019-05-19T01:52:29.709Z,7.63
2019-05-19T01:55:37.182Z,7.72
2019-05-19T01:58:44.810Z,7.60
2019-05-19T02:02:11.113Z,7.65
2019-05-19T02:05:19.004Z,7.55
2019-05-19T02:08:26.374Z,7.62
2019-05-19T02:11:33.747Z,7.76
2019-05-19T02:14:41.183Z,7.86
2019-05-19T02:17:48.501Z,7.93
2019-05-19T02:20:55.837Z,8.08
2019-05-19T02:24:03.346Z,7.99
2019-05-19T02:27:10.963Z,8.12
2019-05-19T02:30:19.385Z,8.29
2019-05-19T02:33:26.661Z,8.26
2019-05-19T02:36:33.931Z,8.34
2019-05-19T02:39:41.577Z,8.25
2019-05-19T02:42:53.034Z,8.31
2019-05-19T02:46:02.708Z,8.43
2019-05-19T02:49:11.499Z,8.43
2019-05-19T02:52:19.629Z,8.42
2019-05-19T02:55:28.805Z,8.48
2019-05-19T02:58:37.275Z,8.53
2019-05-19T03:02:01.896Z,8.53
2019-05-19T03:05:10.089Z,8.54
2019-05-19T03:08:17.573Z,8.56
2019-05-19T03:11:24.730Z,8.97
2019-05-19T03:14:32.293Z,8.92
2019-05-19T03:17:39.459Z,8.82
2019-05-19T03:20:46.852Z,8.61
2019-05-19T03:23:54.036Z,8.50
2019-05-19T03:27:01.560Z,8.47
2019-05-19T03:30:31.155Z,8.36
2019-05-19T03:33:40.157Z,8.42
2019-05-19T03:36:47.414Z,8.45
2019-05-19T03:39:54.799Z,8.44
2019-05-19T03:43:02.267Z,8.53
2019-05-19T03:46:09.780Z,8.56
2019-05-19T03:49:17.179Z,8.59
2019-05-19T03:52:24.354Z,8.60
2019-05-19T03:55:31.532Z,8.62
2019-05-19T03:58:38.709Z,8.81
2019-05-19T04:01:46.378Z,8.85
2019-05-19T04:04:53.834Z,8.86
2019-05-19T04:08:01.631Z,9.09
2019-05-19T04:11:09.118Z,8.97
2019-05-19T04:14:16.632Z,9.04
2019-05-19T04:17:23.794Z,9.15
2019-05-19T04:20:31.334Z,9.21
2019-05-19T04:23:38.814Z,9.11
2019-05-19T04:26:46.394Z,9.27
2019-05-19T04:29:53.662Z,9.45
2019-05-19T04:33:01.072Z,9.64
2019-05-19T04:36:08.702Z,9.82
2019-05-19T04:39:16.182Z,10.04
2019-05-19T04:42:23.355Z,10.23
2019-05-19T04:45:30.745Z,10.40
2019-05-19T04:48:38.286Z,10.38
2019-05-19T04:51:45.728Z,10.67
2019-05-19T04:54:52.911Z,10.80
2019-05-19T04:58:00.271Z,11.04
2019-05-19T05:01:07.934Z,11.10
2019-05-19T05:04:15.347Z,11.24
2019-05-19T05:07:23.338Z,11.35
2019-05-19T05:10:30.894Z,11.46
2019-05-19T05:13:38.327Z,11.58
2019-05-19T05:16:45.504Z,11.69
2019-05-19T05:19:53.429Z,11.92
2019-05-19T05:23:01.131Z,12.05
2019-05-19T05:26:08.949Z,12.08
2019-05-19T05:29:16.433Z,12.28
2019-05-19T05:32:24.135Z,12.39
2019-05-19T05:35:31.854Z,12.80
2019-05-19T05:38:39.216Z,13.04
2019-05-19T05:41:46.790Z,13.07
2019-05-19T05:44:54.066Z,13.45
2019-05-19T05:48:01.515Z,14.28
2019-05-19T05:51:09.252Z,14.27
2019-05-19T05:54:16.531Z,14.17
2019-05-19T05:57:23.957Z,13.89
2019-05-19T06:00:31.281Z,13.93
2019-05-19T06:03:38.835Z,14.86
2019-05-19T06:06:46.283Z,16.24
2019-05-19T06:09:53.528Z,18.22
2019-05-19T06:13:00.746Z,19.91
2019-05-19T06:16:07.913Z,21.01
2019-05-19T06:19:15.178Z,22.19
2019-05-19T06:22:22.468Z,20.31
2019-05-19T06:25:32.508Z,21.17
2019-05-19T06:28:40.186Z,22.33
2019-05-19T06:31:52.877Z,21.42
2019-05-19T06:35:00.090Z,21.51
2019-05-19T06:38:07.446Z,22.66
2019-05-19T06:41:15.300Z,21.91
2019-05-19T06:44:23.726Z,21.48
2019-05-19T06:50:40.935Z,21.39
2019-05-19T06:53:48.605Z,21.56
2019-05-19T06:56:55.868Z,21.88
2019-05-19T07:00:04.508Z,20.98
2019-05-19T07:03:11.815Z,20.68
2019-05-19T07:06:19.113Z,21.99
2019-05-19T07:09:26.874Z,22.45
2019-05-19T07:12:34.357Z,21.45
2019-05-19T07:15:41.647Z,20.76
2019-05-19T07:18:49.017Z,20.28
2019-05-19T07:21:56.701Z,20.13
2019-05-19T07:25:04.868Z,20.23
2019-05-19T07:28:12.342Z,18.84
2019-05-19T07:31:20.364Z,17.92
2019-05-19T07:34:28.185Z,17.43
2019-05-19T07:37:37.102Z,19.71
2019-05-19T07:40:44.705Z,18.98
2019-05-19T07:43:52.478Z,17.85
2019-05-19T07:47:00.035Z,17.56
2019-05-19T07:50:07.711Z,19.57
2019-05-19T07:53:16.094Z,20.59
2019-05-19T07:56:23.912Z,18.91
2019-05-19T07:59:31.762Z,20.16
2019-05-19T08:02:39.265Z,21.95
2019-05-19T08:05:47.136Z,21.04
2019-05-19T08:08:54.986Z,22.08
2019-05-19T08:12:02.835Z,21.89
2019-05-19T08:15:11.044Z,23.68
2019-05-19T08:18:18.836Z,23.58
2019-05-19T08:21:26.721Z,22.50
2019-05-19T08:24:34.258Z,20.98
2019-05-19T08:27:42.580Z,20.87
2019-05-19T08:30:50.546Z,19.65
2019-05-19T08:33:58.492Z,21.30
2019-05-19T08:37:06.347Z,22.92
2019-05-19T08:40:14.363Z,23.81
2019-05-19T08:43:22.007Z,22.13
2019-05-19T08:46:30.689Z,23.45
2019-05-19T08:49:38.620Z,23.38
2019-05-19T08:52:46.135Z,23.20
2019-05-19T08:55:54.070Z,21.79
2019-05-19T08:59:01.850Z,21.82
2019-05-19T09:02:09.314Z,20.42
2019-05-19T09:05:17.232Z,20.22
2019-05-19T09:08:24.865Z,21.44
2019-05-19T09:11:33.327Z,20.65
2019-05-19T09:14:41.361Z,19.73
2019-05-19T09:17:49.014Z,19.66
2019-05-19T09:20:58.284Z,20.13
2019-05-19T09:24:05.815Z,21.68
2019-05-19T09:27:13.179Z,22.93
2019-05-19T09:30:21.060Z,22.92
2019-05-19T09:33:28.919Z,21.97
2019-05-19T09:36:36.439Z,20.30
2019-05-19T09:39:43.953Z,20.14
2019-05-19T09:42:51.979Z,20.23
2019-05-19T09:45:59.824Z,21.58
2019-05-19T09:49:26.267Z,21.95
2019-05-19T09:52:33.655Z,20.23
2019-05-19T09:55:41.381Z,19.87
2019-05-19T09:58:49.580Z,20.48
2019-05-19T10:01:57.157Z,21.26
2019-05-19T10:05:06.340Z,20.31
2019-05-19T10:08:14.550Z,20.19
2019-05-19T10:12:03.648Z,20.75
2019-05-19T10:15:13.424Z,21.18
2019-05-19T10:18:21.099Z,20.38
2019-05-19T10:21:29.776Z,20.89
2019-05-19T10:24:37.925Z,20.63
2019-05-19T10:27:45.847Z,20.94
2019-05-19T10:30:53.871Z,21.27
2019-05-19T10:34:01.494Z,20.31
2019-05-19T10:37:09.393Z,20.62
2019-05-19T10:40:17.605Z,20.71
2019-05-19T10:43:26.166Z,20.72
2019-05-19T10:46:33.759Z,20.33
2019-05-19T10:49:43.111Z,20.92
2019-05-19T10:52:52.057Z,21.31
2019-05-19T10:55:59.347Z,21.14
2019-05-19T10:59:06.754Z,20.70
2019-05-19T11:02:14.134Z,20.80
2019-05-19T11:05:22.149Z,20.86
2019-05-19T11:08:29.700Z,20.59
2019-05-19T11:11:37.328Z,20.79
2019-05-19T11:14:45.269Z,20.64
2019-05-19T11:17:53.086Z,21.11
2019-05-19T11:21:00.267Z,21.23
2019-05-19T11:24:11.593Z,21.42
2019-05-19T11:27:18.846Z,21.85
2019-05-19T11:30:26.131Z,22.25
2019-05-19T11:33:33.701Z,21.78
2019-05-19T11:36:41.413Z,21.65
2019-05-19T11:39:49.044Z,21.58
2019-05-19T11:42:56.679Z,21.37
2019-05-19T11:46:04.092Z,22.04
2019-05-19T11:49:12.110Z,22.26
2019-05-19T11:52:19.388Z,21.89
2019-05-19T11:55:26.723Z,20.77
2019-05-19T11:58:34.774Z,20.92
2019-05-19T12:01:42.626Z,21.39
2019-05-19T12:04:50.412Z,21.74
2019-05-19T12:07:58.005Z,22.57
2019-05-19T12:11:05.818Z,22.68
2019-05-19T12:14:13.365Z,22.77
2019-05-19T12:17:21.423Z,23.29
2019-05-19T12:20:29.745Z,23.82
2019-05-19T12:23:37.385Z,23.80
2019-05-19T12:26:45.468Z,22.06
2019-05-19T12:29:53.103Z,21.61
2019-05-19T12:33:00.647Z,22.02
2019-05-19T12:36:08.136Z,21.55
2019-05-19T12:39:15.758Z,21.54
2019-05-19T12:42:23.593Z,21.63
2019-05-19T12:45:31.784Z,21.69
2019-05-19T12:48:39.177Z,21.50
2019-05-19T12:51:46.787Z,21.41
2019-05-19T12:54:54.219Z,21.57
2019-05-19T12:58:01.951Z,21.78
2019-05-19T13:01:09.649Z,21.96
2019-05-19T13:04:17.231Z,21.44
2019-05-19T13:07:24.839Z,21.91
2019-05-19T13:10:32.389Z,22.16
2019-05-19T13:13:39.756Z,22.01
2019-05-19T13:16:47.577Z,21.75
2019-05-19T13:19:55.557Z,21.85
2019-05-19T13:23:03.244Z,21.84
2019-05-19T13:26:11.096Z,22.15
2019-05-19T13:29:19.162Z,22.53
2019-05-19T13:32:26.881Z,22.52
2019-05-19T13:35:34.173Z,22.12
2019-05-19T13:38:41.952Z,21.85
2019-05-19T13:41:49.237Z,21.80
2019-05-19T13:44:57.064Z,21.71
2019-05-19T13:48:04.852Z,21.50
2019-05-19T13:51:13.216Z,21.31
2019-05-19T13:54:21.159Z,21.00
2019-05-19T13:57:29.031Z,20.87
2019-05-19T14:00:36.851Z,21.00
2019-05-19T14:03:44.174Z,21.10
2019-05-19T14:06:52.542Z,21.02
2019-05-19T14:10:00.897Z,21.03
2019-05-19T14:13:08.728Z,20.95
2019-05-19T14:16:16.107Z,21.07
2019-05-19T14:19:23.750Z,21.12
2019-05-19T14:22:31.740Z,21.36
2019-05-19T14:25:39.988Z,21.62
2019-05-19T14:28:47.779Z,21.76
2019-05-19T14:31:55.843Z,21.90
2019-05-19T14:35:03.752Z,22.03
2019-05-19T14:38:11.094Z,21.65
2019-05-19T14:41:31.571Z,20.93
2019-05-19T14:44:28.713Z,20.29
2019-05-19T14:47:36.201Z,19.79
2019-05-19T14:50:43.684Z,19.31
2019-05-19T14:53:51.254Z,18.97
2019-05-19T14:56:58.666Z,18.73
2019-05-19T15:00:06.542Z,18.63
2019-05-19T15:03:14.113Z,18.66
2019-05-19T15:06:21.264Z,18.80
2019-05-19T15:09:29.091Z,18.94
2019-05-19T15:12:36.779Z,18.87
2019-05-19T15:15:44.466Z,18.74
2019-05-19T15:18:51.863Z,18.95
2019-05-19T15:21:59.147Z,19.21
2019-05-19T15:25:07.045Z,19.62
2019-05-19T15:28:14.560Z,20.12
2019-05-19T15:31:22.057Z,20.65
2019-05-19T15:34:29.358Z,21.17
2019-05-19T15:37:37.557Z,21.56
2019-05-19T15:40:45.444Z,21.47
2019-05-19T15:43:53.597Z,21.38
2019-05-19T15:47:01.447Z,21.38
2019-05-19T15:50:10.009Z,21.59
2019-05-19T15:53:17.342Z,21.79
2019-05-19T15:56:24.950Z,21.95
2019-05-19T15:59:33.980Z,22.11
2019-05-19T16:02:42.039Z,22.18
2019-05-19T16:05:49.727Z,22.19
2019-05-19T16:08:57.474Z,22.09
2019-05-19T16:12:05.144Z,22.11
2019-05-19T16:15:14.785Z,22.04
2019-05-19T16:18:22.388Z,21.98
2019-05-19T16:21:30.748Z,21.90
2019-05-19T16:24:38.278Z,21.58
2019-05-19T16:27:45.841Z,21.39
2019-05-19T16:30:53.186Z,21.43
2019-05-19T16:34:01.599Z,21.39
2019-05-19T16:37:09.126Z,21.38
2019-05-19T16:40:17.251Z,21.36
2019-05-19T16:43:24.812Z,21.45
2019-05-19T16:46:32.544Z,21.53
2019-05-19T16:49:40.042Z,21.48
2019-05-19T16:52:47.468Z,21.58
2019-05-19T16:55:56.755Z,21.60
2019-05-19T16:59:04.344Z,21.59
2019-05-19T17:02:11.750Z,21.47
2019-05-19T17:05:19.790Z,21.11
2019-05-19T17:08:28.287Z,20.78
2019-05-19T17:11:36.116Z,20.55
2019-05-19T17:14:43.796Z,19.75
2019-05-19T17:17:51.610Z,19.29
2019-05-19T17:20:59.946Z,18.84
2019-05-19T17:24:07.788Z,18.17
2019-05-19T17:27:15.323Z,17.77
2019-05-19T17:30:23.447Z,17.68
2019-05-19T17:33:31.237Z,17.46
2019-05-19T17:36:38.842Z,17.50
2019-05-19T17:39:46.599Z,17.34
2019-05-19T17:42:54.101Z,17.20
2019-05-19T17:46:01.820Z,17.07
2019-05-19T17:49:09.319Z,17.19
2019-05-19T17:52:17.691Z,16.87
2019-05-19T17:55:25.065Z,16.94
2019-05-19T17:58:33.168Z,17.20
2019-05-19T18:01:40.577Z,16.88
2019-05-19T18:04:48.154Z,16.98
2019-05-19T18:07:55.549Z,16.63
2019-05-19T18:11:03.112Z,16.28
2019-05-19T18:14:11.726Z,16.17
2019-05-19T18:17:19.329Z,16.16
2019-05-19T18:20:26.812Z,15.94
2019-05-19T18:23:34.169Z,15.54
2019-05-19T18:26:41.597Z,15.56
2019-05-19T18:29:49.380Z,15.29
2019-05-19T18:32:56.667Z,15.53
2019-05-19T18:36:04.359Z,15.67
2019-05-19T18:39:11.720Z,15.53
2019-05-19T18:42:20.578Z,15.54
2019-05-19T18:45:28.274Z,15.64
2019-05-19T18:48:35.830Z,15.56
2019-05-19T18:51:43.175Z,15.45
2019-05-19T18:54:51.094Z,15.38
2019-05-19T18:57:58.446Z,15.30
2019-05-19T19:01:06.573Z,14.75
2019-05-19T19:04:15.326Z,14.52
2019-05-19T19:07:43.227Z,14.39
2019-05-19T19:10:52.044Z,13.98
2019-05-19T19:14:00.467Z,14.21
2019-05-19T19:17:08.329Z,14.21
2019-05-19T19:20:16.457Z,14.16
2019-05-19T19:23:25.422Z,14.03
2019-05-19T19:26:33.365Z,13.60
2019-05-19T19:29:41.705Z,13.55
2019-05-19T19:32:49.937Z,13.47
2019-05-19T19:35:58.612Z,13.56
2019-05-19T19:39:06.726Z,13.42
2019-05-19T19:42:14.228Z,13.35
2019-05-19T19:45:22.625Z,13.27
2019-05-19T19:48:30.519Z,13.27
2019-05-19T19:51:38.065Z,13.41
2019-05-19T19:54:45.883Z,13.33
2019-05-19T19:57:54.239Z,13.48
2019-05-19T20:01:03.653Z,13.43
2019-05-19T20:04:10.994Z,13.24
2019-05-19T20:07:18.946Z,13.12
2019-05-19T20:10:26.461Z,13.16
2019-05-19T20:13:35.139Z,13.36
2019-05-19T20:16:43.389Z,13.23
2019-05-19T20:19:51.848Z,13.16
2019-05-19T20:23:00.179Z,13.06
2019-05-19T20:26:08.154Z,13.08
2019-05-19T20:29:16.229Z,12.98
2019-05-19T20:32:23.670Z,13.09
2019-05-19T20:35:32.349Z,13.10
2019-05-19T20:38:39.817Z,13.00
2019-05-19T20:41:47.306Z,13.07
2019-05-19T20:44:54.981Z,13.04
2019-05-19T20:48:03.956Z,12.93
2019-05-19T20:51:11.522Z,12.92
2019-05-19T20:54:19.013Z,12.82
2019-05-19T20:57:26.748Z,13.01
2019-05-19T21:00:48.095Z,12.91
2019-05-19T21:03:44.359Z,12.86
2019-05-19T21:06:52.128Z,13.01
2019-05-19T21:09:59.709Z,12.93
2019-05-19T21:13:07.649Z,13.03
2019-05-19T21:16:15.622Z,13.09
2019-05-19T21:19:23.511Z,12.90
2019-05-19T21:22:31.018Z,13.08
2019-05-19T21:25:38.689Z,13.03
2019-05-19T21:28:47.411Z,13.27
2019-05-19T21:31:55.493Z,13.34
2019-05-19T21:35:03.996Z,13.36
2019-05-19T21:38:11.817Z,13.31
2019-05-19T21:41:20.142Z,13.22
2019-05-19T21:44:27.681Z,13.03
2019-05-19T21:47:35.699Z,13.24
2019-05-19T21:50:43.564Z,13.14
2019-05-19T21:53:50.838Z,12.91
2019-05-19T21:56:58.666Z,12.81
2019-05-19T22:00:09.243Z,12.87
2019-05-19T22:03:17.681Z,12.86
2019-05-19T22:06:27.344Z,12.95
2019-05-19T22:09:35.288Z,12.86
2019-05-19T22:12:43.079Z,12.73
2019-05-19T22:15:50.677Z,12.73
2019-05-19T22:18:58.489Z,12.66
2019-05-19T22:22:05.861Z,12.61
2019-05-19T22:25:13.683Z,12.58
2019-05-19T22:28:21.585Z,12.49
2019-05-19T22:31:36.645Z,12.65
2019-05-19T22:34:38.915Z,12.60
2019-05-19T22:37:46.309Z,12.48
2019-05-19T22:40:54.158Z,12.37
2019-05-19T22:44:01.705Z,12.47
2019-05-19T22:47:09.771Z,12.54
2019-05-19T22:50:17.577Z,12.53
2019-05-19T22:53:25.547Z,12.83
2019-05-19T22:56:32.813Z,12.78
2019-05-19T22:59:40.288Z,12.73
2019-05-19T23:02:48.379Z,12.78
2019-05-19T23:05:55.672Z,12.57
2019-05-19T23:09:05.569Z,12.41
2019-05-19T23:12:12.823Z,12.31
2019-05-19T23:15:20.877Z,12.30
2019-05-19T23:18:28.285Z,12.44
2019-05-19T23:21:35.997Z,12.27
2019-05-19T23:24:43.605Z,12.28
2019-05-19T23:27:50.902Z,12.20
2019-05-19T23:30:58.059Z,12.31
2019-05-19T23:34:05.534Z,12.30
2019-05-19T23:37:12.931Z,12.27
2019-05-19T23:40:20.461Z,12.22
2019-05-19T23:43:27.643Z,12.09
2019-05-19T23:46:35.246Z,12.14
2019-05-19T23:49:42.749Z,12.08
2019-05-19T23:52:50.026Z,11.89
2019-05-19T23:55:57.301Z,11.91
2019-05-19T23:59:04.689Z,11.98
